sensor_id;sensor_type;location;lat;lon;timestamp;P1;durP1;ratioP1;P2;durP2;ratioP2
68097;SDS011;54886;47.036;15.466;2023-07-30T00:01:57;2.05;;;1.65;;
68097;SDS011;54886;47.036;15.466;2023-07-30T00:04:22;2.45;;;1.70;;
68097;SDS011;54886;47.036;15.466;2023-07-30T00:06:48;6.20;;;1.88;;
68097;SDS011;54886;47.036;15.466;2023-07-30T00:09:14;2.58;;;1.80;;
68097;SDS011;54886;47.036;15.466;2023-07-30T00:15:01;5.30;;;1.77;;
68097;SDS011;54886;47.036;15.466;2023-07-30T00:17:27;3.58;;;1.90;;
68097;SDS011;54886;47.036;15.466;2023-07-30T00:19:52;3.03;;;1.60;;
68097;SDS011;54886;47.036;15.466;2023-07-30T00:22:18;3.88;;;1.60;;
68097;SDS011;54886;47.036;15.466;2023-07-30T00:24:43;3.10;;;1.80;;
68097;SDS011;54886;47.036;15.466;2023-07-30T00:30:30;3.53;;;1.80;;
68097;SDS011;54886;47.036;15.466;2023-07-30T00:32:56;3.25;;;1.65;;
68097;SDS011;54886;47.036;15.466;2023-07-30T00:35:22;2.83;;;1.70;;
68097;SDS011;54886;47.036;15.466;2023-07-30T00:37:47;3.78;;;1.90;;
68097;SDS011;54886;47.036;15.466;2023-07-30T00:43:35;3.65;;;1.73;;
68097;SDS011;54886;47.036;15.466;2023-07-30T00:49:22;6.30;;;1.80;;
68097;SDS011;54886;47.036;15.466;2023-07-30T00:55:09;2.92;;;1.90;;
68097;SDS011;54886;47.036;15.466;2023-07-30T01:00:57;2.97;;;1.75;;
68097;SDS011;54886;47.036;15.466;2023-07-30T01:03:23;4.35;;;1.90;;
68097;SDS011;54886;47.036;15.466;2023-07-30T01:05:50;4.88;;;1.85;;
68097;SDS011;54886;47.036;15.466;2023-07-30T01:08:16;3.63;;;1.90;;
68097;SDS011;54886;47.036;15.466;2023-07-30T01:10:41;3.17;;;2.00;;
68097;SDS011;54886;47.036;15.466;2023-07-30T01:16:29;5.28;;;2.00;;
68097;SDS011;54886;47.036;15.466;2023-07-30T01:18:55;5.18;;;1.88;;
68097;SDS011;54886;47.036;15.466;2023-07-30T01:24:43;3.63;;;1.80;;
68097;SDS011;54886;47.036;15.466;2023-07-30T01:30:36;4.10;;;1.75;;
68097;SDS011;54886;47.036;15.466;2023-07-30T01:36:27;4.40;;;1.95;;
68097;SDS011;54886;47.036;15.466;2023-07-30T01:42:15;2.10;;;1.90;;
68097;SDS011;54886;47.036;15.466;2023-07-30T01:44:41;2.58;;;1.73;;
68097;SDS011;54886;47.036;15.466;2023-07-30T01:47:07;3.47;;;1.90;;
68097;SDS011;54886;47.036;15.466;2023-07-30T01:49:33;3.58;;;1.95;;
68097;SDS011;54886;47.036;15.466;2023-07-30T01:51:58;3.20;;;1.85;;
68097;SDS011;54886;47.036;15.466;2023-07-30T01:54:24;4.22;;;2.03;;
68097;SDS011;54886;47.036;15.466;2023-07-30T01:56:50;4.28;;;1.90;;
68097;SDS011;54886;47.036;15.466;2023-07-30T02:02:38;3.92;;;1.88;;
68097;SDS011;54886;47.036;15.466;2023-07-30T02:05:03;3.38;;;2.05;;
68097;SDS011;54886;47.036;15.466;2023-07-30T02:07:29;2.28;;;1.63;;
68097;SDS011;54886;47.036;15.466;2023-07-30T02:09:55;3.83;;;1.90;;
68097;SDS011;54886;47.036;15.466;2023-07-30T02:12:21;3.42;;;1.95;;
68097;SDS011;54886;47.036;15.466;2023-07-30T02:18:08;3.35;;;1.90;;
68097;SDS011;54886;47.036;15.466;2023-07-30T02:20:35;4.75;;;2.13;;
68097;SDS011;54886;47.036;15.466;2023-07-30T02:23:01;2.53;;;1.92;;
68097;SDS011;54886;47.036;15.466;2023-07-30T02:25:26;3.20;;;2.00;;
68097;SDS011;54886;47.036;15.466;2023-07-30T02:27:52;2.03;;;1.83;;
68097;SDS011;54886;47.036;15.466;2023-07-30T02:30:17;2.22;;;1.85;;
68097;SDS011;54886;47.036;15.466;2023-07-30T02:32:43;3.05;;;1.95;;
68097;SDS011;54886;47.036;15.466;2023-07-30T02:38:30;3.33;;;1.90;;
68097;SDS011;54886;47.036;15.466;2023-07-30T02:40:56;2.90;;;2.00;;
68097;SDS011;54886;47.036;15.466;2023-07-30T02:46:43;5.45;;;2.08;;
68097;SDS011;54886;47.036;15.466;2023-07-30T02:52:30;2.22;;;1.80;;
68097;SDS011;54886;47.036;15.466;2023-07-30T02:58:17;4.75;;;2.00;;
68097;SDS011;54886;47.036;15.466;2023-07-30T03:04:05;6.05;;;2.08;;
68097;SDS011;54886;47.036;15.466;2023-07-30T03:06:30;3.70;;;2.00;;
68097;SDS011;54886;47.036;15.466;2023-07-30T03:08:56;2.90;;;2.08;;
68097;SDS011;54886;47.036;15.466;2023-07-30T03:11:22;3.60;;;2.05;;
68097;SDS011;54886;47.036;15.466;2023-07-30T03:13:48;3.90;;;2.10;;
68097;SDS011;54886;47.036;15.466;2023-07-30T03:19:36;2.42;;;1.90;;
68097;SDS011;54886;47.036;15.466;2023-07-30T03:22:01;4.70;;;2.20;;
68097;SDS011;54886;47.036;15.466;2023-07-30T03:24:27;3.97;;;2.30;;
68097;SDS011;54886;47.036;15.466;2023-07-30T03:26:52;4.18;;;2.50;;
68097;SDS011;54886;47.036;15.466;2023-07-30T03:29:18;3.72;;;2.50;;
68097;SDS011;54886;47.036;15.466;2023-07-30T03:35:05;3.38;;;2.08;;
68097;SDS011;54886;47.036;15.466;2023-07-30T03:37:31;6.15;;;2.30;;
68097;SDS011;54886;47.036;15.466;2023-07-30T03:39:57;4.72;;;2.10;;
68097;SDS011;54886;47.036;15.466;2023-07-30T03:42:22;3.60;;;2.17;;
68097;SDS011;54886;47.036;15.466;2023-07-30T03:44:48;3.75;;;2.13;;
68097;SDS011;54886;47.036;15.466;2023-07-30T03:47:14;5.55;;;2.17;;
68097;SDS011;54886;47.036;15.466;2023-07-30T03:49:39;3.30;;;1.95;;
68097;SDS011;54886;47.036;15.466;2023-07-30T03:52:05;4.50;;;2.17;;
68097;SDS011;54886;47.036;15.466;2023-07-30T03:54:31;2.78;;;2.05;;
68097;SDS011;54886;47.036;15.466;2023-07-30T04:00:18;4.25;;;2.05;;
68097;SDS011;54886;47.036;15.466;2023-07-30T04:02:44;3.85;;;2.10;;
68097;SDS011;54886;47.036;15.466;2023-07-30T04:05:09;4.90;;;2.20;;
68097;SDS011;54886;47.036;15.466;2023-07-30T04:07:35;4.15;;;2.72;;
68097;SDS011;54886;47.036;15.466;2023-07-30T04:10:00;5.43;;;2.40;;
68097;SDS011;54886;47.036;15.466;2023-07-30T04:15:48;3.85;;;2.10;;
68097;SDS011;54886;47.036;15.466;2023-07-30T04:18:14;4.00;;;2.20;;
68097;SDS011;54886;47.036;15.466;2023-07-30T04:20:39;5.50;;;2.25;;
68097;SDS011;54886;47.036;15.466;2023-07-30T04:23:05;4.72;;;2.25;;
68097;SDS011;54886;47.036;15.466;2023-07-30T04:25:31;5.00;;;2.20;;
68097;SDS011;54886;47.036;15.466;2023-07-30T04:27:56;4.28;;;2.50;;
68097;SDS011;54886;47.036;15.466;2023-07-30T04:30:22;3.67;;;2.40;;
68097;SDS011;54886;47.036;15.466;2023-07-30T04:36:09;3.53;;;2.40;;
68097;SDS011;54886;47.036;15.466;2023-07-30T04:38:35;3.33;;;2.20;;
68097;SDS011;54886;47.036;15.466;2023-07-30T04:41:01;3.60;;;2.20;;
68097;SDS011;54886;47.036;15.466;2023-07-30T04:43:27;4.75;;;2.25;;
68097;SDS011;54886;47.036;15.466;2023-07-30T04:49:14;5.40;;;2.40;;
68097;SDS011;54886;47.036;15.466;2023-07-30T04:51:40;5.50;;;2.47;;
68097;SDS011;54886;47.036;15.466;2023-07-30T04:54:06;3.53;;;2.30;;
68097;SDS011;54886;47.036;15.466;2023-07-30T04:56:31;6.20;;;2.40;;
68097;SDS011;54886;47.036;15.466;2023-07-30T05:02:18;4.57;;;2.10;;
68097;SDS011;54886;47.036;15.466;2023-07-30T05:04:44;3.55;;;2.45;;
68097;SDS011;54886;47.036;15.466;2023-07-30T05:07:10;4.20;;;2.40;;
68097;SDS011;54886;47.036;15.466;2023-07-30T05:09:36;4.18;;;2.70;;
68097;SDS011;54886;47.036;15.466;2023-07-30T05:12:01;4.63;;;2.15;;
68097;SDS011;54886;47.036;15.466;2023-07-30T05:14:27;5.90;;;2.30;;
68097;SDS011;54886;47.036;15.466;2023-07-30T05:16:53;5.28;;;2.22;;
68097;SDS011;54886;47.036;15.466;2023-07-30T05:19:18;6.60;;;2.50;;
68097;SDS011;54886;47.036;15.466;2023-07-30T05:21:44;3.70;;;2.33;;
68097;SDS011;54886;47.036;15.466;2023-07-30T05:27:38;4.93;;;2.28;;
68097;SDS011;54886;47.036;15.466;2023-07-30T05:30:03;3.88;;;2.55;;
68097;SDS011;54886;47.036;15.466;2023-07-30T05:32:30;3.78;;;2.65;;
68097;SDS011;54886;47.036;15.466;2023-07-30T05:34:55;5.90;;;2.55;;
68097;SDS011;54886;47.036;15.466;2023-07-30T05:37:21;4.00;;;2.30;;
68097;SDS011;54886;47.036;15.466;2023-07-30T05:43:09;4.65;;;2.40;;
68097;SDS011;54886;47.036;15.466;2023-07-30T05:45:35;4.38;;;2.30;;
68097;SDS011;54886;47.036;15.466;2023-07-30T05:48:00;4.20;;;2.25;;
68097;SDS011;54886;47.036;15.466;2023-07-30T05:50:26;4.18;;;2.58;;
68097;SDS011;54886;47.036;15.466;2023-07-30T05:52:52;4.13;;;2.17;;
68097;SDS011;54886;47.036;15.466;2023-07-30T05:55:17;4.72;;;2.53;;
68097;SDS011;54886;47.036;15.466;2023-07-30T05:57:43;3.65;;;2.10;;
68097;SDS011;54886;47.036;15.466;2023-07-30T06:03:30;4.05;;;2.65;;
68097;SDS011;54886;47.036;15.466;2023-07-30T06:05:56;3.60;;;2.30;;
68097;SDS011;54886;47.036;15.466;2023-07-30T06:08:21;5.22;;;2.92;;
68097;SDS011;54886;47.036;15.466;2023-07-30T06:10:47;5.22;;;2.70;;
68097;SDS011;54886;47.036;15.466;2023-07-30T06:13:13;6.53;;;3.20;;
68097;SDS011;54886;47.036;15.466;2023-07-30T06:19:00;7.72;;;3.30;;
68097;SDS011;54886;47.036;15.466;2023-07-30T06:21:26;6.05;;;3.40;;
68097;SDS011;54886;47.036;15.466;2023-07-30T06:27:13;6.30;;;2.78;;
68097;SDS011;54886;47.036;15.466;2023-07-30T06:33:00;5.80;;;2.72;;
68097;SDS011;54886;47.036;15.466;2023-07-30T06:38:47;6.80;;;2.80;;
68097;SDS011;54886;47.036;15.466;2023-07-30T06:44:35;5.22;;;2.80;;
68097;SDS011;54886;47.036;15.466;2023-07-30T06:47:00;6.35;;;2.50;;
68097;SDS011;54886;47.036;15.466;2023-07-30T06:49:26;3.50;;;2.55;;
68097;SDS011;54886;47.036;15.466;2023-07-30T06:55:13;4.38;;;2.30;;
68097;SDS011;54886;47.036;15.466;2023-07-30T06:57:39;5.35;;;2.30;;
68097;SDS011;54886;47.036;15.466;2023-07-30T07:00:05;3.83;;;2.17;;
68097;SDS011;54886;47.036;15.466;2023-07-30T07:02:31;4.15;;;2.30;;
68097;SDS011;54886;47.036;15.466;2023-07-30T07:04:58;8.63;;;2.23;;
68097;SDS011;54886;47.036;15.466;2023-07-30T07:10:45;3.88;;;2.35;;
68097;SDS011;54886;47.036;15.466;2023-07-30T07:13:10;6.28;;;2.40;;
68097;SDS011;54886;47.036;15.466;2023-07-30T07:15:40;5.88;;;2.53;;
68097;SDS011;54886;47.036;15.466;2023-07-30T07:18:06;4.53;;;2.63;;
68097;SDS011;54886;47.036;15.466;2023-07-30T07:20:32;5.68;;;2.40;;
68097;SDS011;54886;47.036;15.466;2023-07-30T07:22:58;5.38;;;2.47;;
68097;SDS011;54886;47.036;15.466;2023-07-30T07:28:45;4.22;;;2.50;;
68097;SDS011;54886;47.036;15.466;2023-07-30T07:34:01;4.38;;;2.30;;
68097;SDS011;54886;47.036;15.466;2023-07-30T07:39:48;3.40;;;2.25;;
68097;SDS011;54886;47.036;15.466;2023-07-30T07:45:35;4.45;;;2.40;;
68097;SDS011;54886;47.036;15.466;2023-07-30T07:51:22;4.55;;;2.50;;
68097;SDS011;54886;47.036;15.466;2023-07-30T07:53:48;4.53;;;2.35;;
68097;SDS011;54886;47.036;15.466;2023-07-30T07:56:14;5.70;;;2.70;;
68097;SDS011;54886;47.036;15.466;2023-07-30T07:58:39;6.05;;;2.80;;
68097;SDS011;54886;47.036;15.466;2023-07-30T08:01:05;3.55;;;2.33;;
68097;SDS011;54886;47.036;15.466;2023-07-30T08:06:52;3.75;;;2.58;;
68097;SDS011;54886;47.036;15.466;2023-07-30T08:09:18;3.85;;;2.45;;
68097;SDS011;54886;47.036;15.466;2023-07-30T08:11:43;5.40;;;2.47;;
68097;SDS011;54886;47.036;15.466;2023-07-30T08:17:31;6.18;;;2.50;;
68097;SDS011;54886;47.036;15.466;2023-07-30T08:19:56;3.70;;;2.08;;
68097;SDS011;54886;47.036;15.466;2023-07-30T08:22:22;3.55;;;2.10;;
68097;SDS011;54886;47.036;15.466;2023-07-30T08:24:47;3.85;;;2.30;;
68097;SDS011;54886;47.036;15.466;2023-07-30T08:27:13;5.45;;;2.40;;
68097;SDS011;54886;47.036;15.466;2023-07-30T08:29:39;2.88;;;2.25;;
68097;SDS011;54886;47.036;15.466;2023-07-30T08:32:05;4.55;;;2.38;;
68097;SDS011;54886;47.036;15.466;2023-07-30T08:37:52;3.40;;;2.33;;
68097;SDS011;54886;47.036;15.466;2023-07-30T08:40:20;3.90;;;2.40;;
68097;SDS011;54886;47.036;15.466;2023-07-30T08:42:49;4.07;;;2.30;;
68097;SDS011;54886;47.036;15.466;2023-07-30T08:45:16;4.07;;;2.15;;
68097;SDS011;54886;47.036;15.466;2023-07-30T08:47:42;3.17;;;2.30;;
68097;SDS011;54886;47.036;15.466;2023-07-30T08:50:07;3.63;;;2.10;;
68097;SDS011;54886;47.036;15.466;2023-07-30T08:52:34;3.30;;;2.10;;
68097;SDS011;54886;47.036;15.466;2023-07-30T08:58:23;4.70;;;2.13;;
68097;SDS011;54886;47.036;15.466;2023-07-30T09:00:51;2.42;;;1.90;;
68097;SDS011;54886;47.036;15.466;2023-07-30T09:03:20;2.88;;;2.10;;
68097;SDS011;54886;47.036;15.466;2023-07-30T09:05:48;3.95;;;2.00;;
68097;SDS011;54886;47.036;15.466;2023-07-30T09:08:14;4.38;;;2.08;;
68097;SDS011;54886;47.036;15.466;2023-07-30T09:10:40;3.53;;;2.03;;
68097;SDS011;54886;47.036;15.466;2023-07-30T09:13:06;2.25;;;1.73;;
68097;SDS011;54886;47.036;15.466;2023-07-30T09:18:54;2.97;;;1.73;;
68097;SDS011;54886;47.036;15.466;2023-07-30T09:21:28;2.75;;;1.92;;
68097;SDS011;54886;47.036;15.466;2023-07-30T09:24:00;2.42;;;1.70;;
68097;SDS011;54886;47.036;15.466;2023-07-30T09:27:22;2.72;;;1.80;;
68097;SDS011;54886;47.036;15.466;2023-07-30T09:33:12;2.00;;;1.77;;
68097;SDS011;54886;47.036;15.466;2023-07-30T09:39:13;2.17;;;1.60;;
68097;SDS011;54886;47.036;15.466;2023-07-30T09:45:25;1.85;;;1.50;;
68097;SDS011;54886;47.036;15.466;2023-07-30T09:47:51;3.25;;;1.60;;
68097;SDS011;54886;47.036;15.466;2023-07-30T09:53:39;2.03;;;1.52;;
68097;SDS011;54886;47.036;15.466;2023-07-30T09:59:26;1.60;;;1.40;;
68097;SDS011;54886;47.036;15.466;2023-07-30T10:01:51;3.00;;;1.60;;
68097;SDS011;54886;47.036;15.466;2023-07-30T10:04:21;1.92;;;1.70;;
68097;SDS011;54886;47.036;15.466;2023-07-30T10:10:09;1.95;;;1.55;;
68097;SDS011;54886;47.036;15.466;2023-07-30T10:15:57;1.60;;;1.50;;
68097;SDS011;54886;47.036;15.466;2023-07-30T10:18:37;1.70;;;1.60;;
68097;SDS011;54886;47.036;15.466;2023-07-30T10:24:26;1.63;;;1.40;;
68097;SDS011;54886;47.036;15.466;2023-07-30T10:30:15;1.55;;;1.45;;
68097;SDS011;54886;47.036;15.466;2023-07-30T10:36:03;1.85;;;1.60;;
68097;SDS011;54886;47.036;15.466;2023-07-30T10:38:29;1.42;;;1.33;;
68097;SDS011;54886;47.036;15.466;2023-07-30T10:46:04;1.85;;;1.40;;
68097;SDS011;54886;47.036;15.466;2023-07-30T10:51:52;1.52;;;1.40;;
68097;SDS011;54886;47.036;15.466;2023-07-30T10:54:19;2.38;;;1.58;;
68097;SDS011;54886;47.036;15.466;2023-07-30T11:00:07;1.60;;;1.50;;
68097;SDS011;54886;47.036;15.466;2023-07-30T11:05:55;1.95;;;1.45;;
68097;SDS011;54886;47.036;15.466;2023-07-30T11:11:42;1.88;;;1.40;;
68097;SDS011;54886;47.036;15.466;2023-07-30T11:14:08;1.50;;;1.33;;
68097;SDS011;54886;47.036;15.466;2023-07-30T11:16:46;1.58;;;1.48;;
68097;SDS011;54886;47.036;15.466;2023-07-30T11:22:36;1.60;;;1.50;;
68097;SDS011;54886;47.036;15.466;2023-07-30T11:25:02;2.40;;;1.55;;
68097;SDS011;54886;47.036;15.466;2023-07-30T11:27:54;1.50;;;1.40;;
68097;SDS011;54886;47.036;15.466;2023-07-30T11:30:57;1.60;;;1.50;;
68097;SDS011;54886;47.036;15.466;2023-07-30T11:36:46;1.50;;;1.40;;
68097;SDS011;54886;47.036;15.466;2023-07-30T11:42:34;2.40;;;1.67;;
68097;SDS011;54886;47.036;15.466;2023-07-30T11:48:22;1.45;;;1.35;;
68097;SDS011;54886;47.036;15.466;2023-07-30T11:50:50;2.30;;;1.70;;
68097;SDS011;54886;47.036;15.466;2023-07-30T11:53:17;1.95;;;1.63;;
68097;SDS011;54886;47.036;15.466;2023-07-30T11:59:05;2.15;;;1.60;;
68097;SDS011;54886;47.036;15.466;2023-07-30T12:01:33;1.95;;;1.50;;
68097;SDS011;54886;47.036;15.466;2023-07-30T12:07:22;1.88;;;1.60;;
68097;SDS011;54886;47.036;15.466;2023-07-30T12:13:17;2.55;;;1.60;;
68097;SDS011;54886;47.036;15.466;2023-07-30T12:19:06;1.73;;;1.63;;
68097;SDS011;54886;47.036;15.466;2023-07-30T12:21:32;1.95;;;1.60;;
68097;SDS011;54886;47.036;15.466;2023-07-30T12:27:19;2.17;;;1.50;;
68097;SDS011;54886;47.036;15.466;2023-07-30T12:33:27;1.67;;;1.50;;
68097;SDS011;54886;47.036;15.466;2023-07-30T12:39:14;1.60;;;1.50;;
68097;SDS011;54886;47.036;15.466;2023-07-30T12:41:40;2.42;;;1.60;;
68097;SDS011;54886;47.036;15.466;2023-07-30T12:44:05;1.58;;;1.45;;
68097;SDS011;54886;47.036;15.466;2023-07-30T12:46:31;2.70;;;1.48;;
68097;SDS011;54886;47.036;15.466;2023-07-30T12:48:58;1.83;;;1.40;;
68097;SDS011;54886;47.036;15.466;2023-07-30T12:54:51;2.17;;;1.50;;
68097;SDS011;54886;47.036;15.466;2023-07-30T12:57:16;1.63;;;1.50;;
68097;SDS011;54886;47.036;15.466;2023-07-30T12:59:42;1.58;;;1.48;;
68097;SDS011;54886;47.036;15.466;2023-07-30T13:02:07;1.92;;;1.70;;
68097;SDS011;54886;47.036;15.466;2023-07-30T13:04:33;1.73;;;1.58;;
68097;SDS011;54886;47.036;15.466;2023-07-30T13:10:20;2.97;;;1.70;;
68097;SDS011;54886;47.036;15.466;2023-07-30T13:12:46;1.80;;;1.70;;
68097;SDS011;54886;47.036;15.466;2023-07-30T13:15:12;2.58;;;1.60;;
68097;SDS011;54886;47.036;15.466;2023-07-30T13:17:37;1.75;;;1.63;;
68097;SDS011;54886;47.036;15.466;2023-07-30T13:20:04;1.70;;;1.60;;
68097;SDS011;54886;47.036;15.466;2023-07-30T13:22:30;2.13;;;1.70;;
68097;SDS011;54886;47.036;15.466;2023-07-30T13:24:56;1.70;;;1.60;;
68097;SDS011;54886;47.036;15.466;2023-07-30T13:27:21;1.60;;;1.50;;
68097;SDS011;54886;47.036;15.466;2023-07-30T13:29:47;1.70;;;1.60;;
68097;SDS011;54886;47.036;15.466;2023-07-30T13:35:54;2.00;;;1.70;;
68097;SDS011;54886;47.036;15.466;2023-07-30T13:38:19;1.60;;;1.50;;
68097;SDS011;54886;47.036;15.466;2023-07-30T13:40:50;1.75;;;1.50;;
68097;SDS011;54886;47.036;15.466;2023-07-30T13:43:16;2.70;;;1.70;;
68097;SDS011;54886;47.036;15.466;2023-07-30T13:45:41;1.70;;;1.60;;
68097;SDS011;54886;47.036;15.466;2023-07-30T13:48:07;1.60;;;1.50;;
68097;SDS011;54886;47.036;15.466;2023-07-30T13:50:34;1.75;;;1.60;;
68097;SDS011;54886;47.036;15.466;2023-07-30T13:56:21;1.60;;;1.50;;
68097;SDS011;54886;47.036;15.466;2023-07-30T13:58:47;2.33;;;1.60;;
68097;SDS011;54886;47.036;15.466;2023-07-30T14:01:12;2.28;;;1.60;;
68097;SDS011;54886;47.036;15.466;2023-07-30T14:03:40;2.45;;;1.50;;
68097;SDS011;54886;47.036;15.466;2023-07-30T14:06:06;3.13;;;1.60;;
68097;SDS011;54886;47.036;15.466;2023-07-30T14:08:31;1.60;;;1.50;;
68097;SDS011;54886;47.036;15.466;2023-07-30T14:10:57;3.40;;;1.60;;
68097;SDS011;54886;47.036;15.466;2023-07-30T14:16:45;1.92;;;1.65;;
68097;SDS011;54886;47.036;15.466;2023-07-30T14:19:11;4.65;;;3.30;;
68097;SDS011;54886;47.036;15.466;2023-07-30T14:21:37;1.90;;;1.80;;
68097;SDS011;54886;47.036;15.466;2023-07-30T14:27:25;1.73;;;1.63;;
68097;SDS011;54886;47.036;15.466;2023-07-30T14:29:50;1.55;;;1.40;;
68097;SDS011;54886;47.036;15.466;2023-07-30T14:32:17;3.40;;;2.22;;
68097;SDS011;54886;47.036;15.466;2023-07-30T14:34:44;2.30;;;1.83;;
68097;SDS011;54886;47.036;15.466;2023-07-30T14:37:09;1.90;;;1.65;;
68097;SDS011;54886;47.036;15.466;2023-07-30T14:39:35;1.90;;;1.70;;
68097;SDS011;54886;47.036;15.466;2023-07-30T14:42:01;2.58;;;1.60;;
68097;SDS011;54886;47.036;15.466;2023-07-30T14:44:26;1.88;;;1.75;;
68097;SDS011;54886;47.036;15.466;2023-07-30T14:46:52;2.50;;;2.10;;
68097;SDS011;54886;47.036;15.466;2023-07-30T14:52:39;2.35;;;1.77;;
68097;SDS011;54886;47.036;15.466;2023-07-30T14:55:05;2.97;;;2.00;;
68097;SDS011;54886;47.036;15.466;2023-07-30T14:57:31;2.17;;;1.92;;
68097;SDS011;54886;47.036;15.466;2023-07-30T15:03:19;1.60;;;1.50;;
68097;SDS011;54886;47.036;15.466;2023-07-30T15:09:07;2.20;;;1.50;;
68097;SDS011;54886;47.036;15.466;2023-07-30T15:11:32;1.70;;;1.60;;
68097;SDS011;54886;47.036;15.466;2023-07-30T15:17:20;3.47;;;1.73;;
68097;SDS011;54886;47.036;15.466;2023-07-30T15:23:07;2.33;;;1.45;;
68097;SDS011;54886;47.036;15.466;2023-07-30T15:28:55;2.15;;;1.40;;
68097;SDS011;54886;47.036;15.466;2023-07-30T15:31:21;3.00;;;1.40;;
68097;SDS011;54886;47.036;15.466;2023-07-30T15:33:46;2.20;;;1.55;;
68097;SDS011;54886;47.036;15.466;2023-07-30T15:36:12;1.77;;;1.50;;
68097;SDS011;54886;47.036;15.466;2023-07-30T15:38:37;2.15;;;1.70;;
68097;SDS011;54886;47.036;15.466;2023-07-30T15:44:25;1.80;;;1.60;;
68097;SDS011;54886;47.036;15.466;2023-07-30T15:46:50;3.08;;;1.80;;
68097;SDS011;54886;47.036;15.466;2023-07-30T15:49:17;6.35;;;3.30;;
68097;SDS011;54886;47.036;15.466;2023-07-30T15:51:42;5.70;;;3.00;;
68097;SDS011;54886;47.036;15.466;2023-07-30T15:54:08;2.70;;;2.10;;
68097;SDS011;54886;47.036;15.466;2023-07-30T15:56:33;2.70;;;1.83;;
68097;SDS011;54886;47.036;15.466;2023-07-30T15:58:59;2.25;;;1.70;;
68097;SDS011;54886;47.036;15.466;2023-07-30T16:04:46;19.58;;;8.45;;
68097;SDS011;54886;47.036;15.466;2023-07-30T16:07:12;19.83;;;9.48;;
68097;SDS011;54886;47.036;15.466;2023-07-30T16:09:38;14.35;;;5.90;;
68097;SDS011;54886;47.036;15.466;2023-07-30T16:12:04;13.18;;;6.20;;
68097;SDS011;54886;47.036;15.466;2023-07-30T16:14:31;7.53;;;3.58;;
68097;SDS011;54886;47.036;15.466;2023-07-30T16:16:56;5.18;;;2.67;;
68097;SDS011;54886;47.036;15.466;2023-07-30T16:22:44;2.85;;;1.65;;
68097;SDS011;54886;47.036;15.466;2023-07-30T16:25:09;2.72;;;1.70;;
68097;SDS011;54886;47.036;15.466;2023-07-30T16:27:35;4.57;;;1.80;;
68097;SDS011;54886;47.036;15.466;2023-07-30T16:30:01;1.88;;;1.67;;
68097;SDS011;54886;47.036;15.466;2023-07-30T16:32:28;3.20;;;1.73;;
68097;SDS011;54886;47.036;15.466;2023-07-30T16:34:54;4.22;;;2.00;;
68097;SDS011;54886;47.036;15.466;2023-07-30T16:40:42;2.63;;;1.50;;
68097;SDS011;54886;47.036;15.466;2023-07-30T16:43:07;2.10;;;1.63;;
68097;SDS011;54886;47.036;15.466;2023-07-30T16:45:33;2.78;;;1.90;;
68097;SDS011;54886;47.036;15.466;2023-07-30T16:47:59;2.63;;;1.70;;
68097;SDS011;54886;47.036;15.466;2023-07-30T16:50:25;2.88;;;1.63;;
68097;SDS011;54886;47.036;15.466;2023-07-30T16:52:51;3.00;;;1.60;;
68097;SDS011;54886;47.036;15.466;2023-07-30T16:55:17;2.20;;;1.40;;
68097;SDS011;54886;47.036;15.466;2023-07-30T16:57:42;2.63;;;1.55;;
68097;SDS011;54886;47.036;15.466;2023-07-30T17:00:08;1.98;;;1.67;;
68097;SDS011;54886;47.036;15.466;2023-07-30T17:05:56;2.65;;;1.67;;
68097;SDS011;54886;47.036;15.466;2023-07-30T17:08:25;3.03;;;1.60;;
68097;SDS011;54886;47.036;15.466;2023-07-30T17:10:51;2.15;;;1.58;;
68097;SDS011;54886;47.036;15.466;2023-07-30T17:13:17;1.45;;;1.35;;
68097;SDS011;54886;47.036;15.466;2023-07-30T17:15:43;1.88;;;1.52;;
68097;SDS011;54886;47.036;15.466;2023-07-30T17:21:30;1.67;;;1.58;;
68097;SDS011;54886;47.036;15.466;2023-07-30T17:23:56;2.50;;;1.40;;
68097;SDS011;54886;47.036;15.466;2023-07-30T17:26:22;2.55;;;1.50;;
68097;SDS011;54886;47.036;15.466;2023-07-30T17:28:48;2.97;;;1.42;;
68097;SDS011;54886;47.036;15.466;2023-07-30T17:31:13;1.70;;;1.58;;
68097;SDS011;54886;47.036;15.466;2023-07-30T17:33:39;2.20;;;1.70;;
68097;SDS011;54886;47.036;15.466;2023-07-30T17:36:05;2.30;;;1.80;;
68097;SDS011;54886;47.036;15.466;2023-07-30T17:41:54;2.60;;;1.80;;
68097;SDS011;54886;47.036;15.466;2023-07-30T17:44:20;2.45;;;1.80;;
68097;SDS011;54886;47.036;15.466;2023-07-30T17:46:45;2.03;;;1.60;;
68097;SDS011;54886;47.036;15.466;2023-07-30T17:52:33;1.58;;;1.48;;
68097;SDS011;54886;47.036;15.466;2023-07-30T17:54:58;2.20;;;1.70;;
68097;SDS011;54886;47.036;15.466;2023-07-30T17:57:24;2.17;;;1.67;;
68097;SDS011;54886;47.036;15.466;2023-07-30T17:59:49;2.20;;;1.60;;
68097;SDS011;54886;47.036;15.466;2023-07-30T18:05:37;2.42;;;1.60;;
68097;SDS011;54886;47.036;15.466;2023-07-30T18:11:24;2.55;;;1.52;;
68097;SDS011;54886;47.036;15.466;2023-07-30T18:17:12;1.70;;;1.60;;
68097;SDS011;54886;47.036;15.466;2023-07-30T18:22:59;2.63;;;1.92;;
68097;SDS011;54886;47.036;15.466;2023-07-30T18:25:25;2.33;;;1.60;;
68097;SDS011;54886;47.036;15.466;2023-07-30T18:27:51;2.85;;;1.50;;
68097;SDS011;54886;47.036;15.466;2023-07-30T18:30:17;2.28;;;1.60;;
68097;SDS011;54886;47.036;15.466;2023-07-30T18:32:43;2.33;;;1.38;;
68097;SDS011;54886;47.036;15.466;2023-07-30T18:35:09;1.40;;;1.30;;
68097;SDS011;54886;47.036;15.466;2023-07-30T18:37:35;1.73;;;1.52;;
68097;SDS011;54886;47.036;15.466;2023-07-30T18:43:23;5.43;;;1.60;;
68097;SDS011;54886;47.036;15.466;2023-07-30T18:45:50;4.18;;;1.60;;
68097;SDS011;54886;47.036;15.466;2023-07-30T18:48:16;4.35;;;1.60;;
68097;SDS011;54886;47.036;15.466;2023-07-30T18:54:05;2.50;;;1.73;;
68097;SDS011;54886;47.036;15.466;2023-07-30T18:56:30;2.38;;;1.50;;
68097;SDS011;54886;47.036;15.466;2023-07-30T18:58:56;2.65;;;1.70;;
68097;SDS011;54886;47.036;15.466;2023-07-30T19:01:22;2.63;;;1.80;;
68097;SDS011;54886;47.036;15.466;2023-07-30T19:03:47;2.72;;;1.90;;
68097;SDS011;54886;47.036;15.466;2023-07-30T19:06:13;3.00;;;1.67;;
68097;SDS011;54886;47.036;15.466;2023-07-30T19:08:38;2.45;;;1.85;;
68097;SDS011;54886;47.036;15.466;2023-07-30T19:14:26;2.75;;;1.70;;
68097;SDS011;54886;47.036;15.466;2023-07-30T19:16:52;3.08;;;1.90;;
68097;SDS011;54886;47.036;15.466;2023-07-30T19:19:17;2.22;;;1.80;;
68097;SDS011;54886;47.036;15.466;2023-07-30T19:21:43;2.70;;;1.90;;
68097;SDS011;54886;47.036;15.466;2023-07-30T19:24:10;2.88;;;1.80;;
68097;SDS011;54886;47.036;15.466;2023-07-30T19:26:35;1.83;;;1.60;;
68097;SDS011;54886;47.036;15.466;2023-07-30T19:29:01;2.83;;;1.80;;
68097;SDS011;54886;47.036;15.466;2023-07-30T19:31:36;2.85;;;1.75;;
68097;SDS011;54886;47.036;15.466;2023-07-30T19:34:06;2.50;;;1.70;;
68097;SDS011;54886;47.036;15.466;2023-07-30T19:40:12;2.22;;;1.90;;
68097;SDS011;54886;47.036;15.466;2023-07-30T19:42:37;2.92;;;1.83;;
68097;SDS011;54886;47.036;15.466;2023-07-30T19:45:03;2.70;;;1.83;;
68097;SDS011;54886;47.036;15.466;2023-07-30T19:47:29;3.05;;;1.65;;
68097;SDS011;54886;47.036;15.466;2023-07-30T19:49:55;2.25;;;1.63;;
68097;SDS011;54886;47.036;15.466;2023-07-30T19:52:20;3.40;;;1.80;;
68097;SDS011;54886;47.036;15.466;2023-07-30T19:54:46;3.03;;;1.98;;
68097;SDS011;54886;47.036;15.466;2023-07-30T20:00:33;2.15;;;1.80;;
68097;SDS011;54886;47.036;15.466;2023-07-30T20:02:59;3.53;;;1.90;;
68097;SDS011;54886;47.036;15.466;2023-07-30T20:08:46;4.57;;;2.05;;
68097;SDS011;54886;47.036;15.466;2023-07-30T20:14:34;2.78;;;1.85;;